sensor_id;sensor_type;location;lat;lon;timestamp;temperature;humidity
5964;DHT22;3008;53.562;9.908;2023-04-01T00:00:22;21.20;84.20
5964;DHT22;3008;53.562;9.908;2023-04-01T00:02:47;21.20;84.20
5964;DHT22;3008;53.562;9.908;2023-04-01T00:05:13;21.20;84.30
5964;DHT22;3008;53.562;9.908;2023-04-01T00:07:40;21.20;84.30
5964;DHT22;3008;53.562;9.908;2023-04-01T00:10:07;21.20;84.30
5964;DHT22;3008;53.562;9.908;2023-04-01T00:12:34;21.20;84.40
5964;DHT22;3008;53.562;9.908;2023-04-01T00:15:00;21.20;84.40
5964;DHT22;3008;53.562;9.908;2023-04-01T00:17:25;21.20;84.50
5964;DHT22;3008;53.562;9.908;2023-04-01T00:19:51;21.20;85.40
5964;DHT22;3008;53.562;9.908;2023-04-01T00:22:17;21.20;84.50
5964;DHT22;3008;53.562;9.908;2023-04-01T00:24:43;21.20;84.70
5964;DHT22;3008;53.562;9.908;2023-04-01T00:27:08;21.20;84.70
5964;DHT22;3008;53.562;9.908;2023-04-01T00:29:34;21.20;84.80
5964;DHT22;3008;53.562;9.908;2023-04-01T00:32:00;21.20;84.80
5964;DHT22;3008;53.562;9.908;2023-04-01T00:34:26;21.20;84.90
5964;DHT22;3008;53.562;9.908;2023-04-01T00:36:52;21.20;84.90
5964;DHT22;3008;53.562;9.908;2023-04-01T00:39:19;21.20;84.90
5964;DHT22;3008;53.562;9.908;2023-04-01T00:41:45;21.20;84.90
5964;DHT22;3008;53.562;9.908;2023-04-01T00:44:28;21.20;84.90
5964;DHT22;3008;53.562;9.908;2023-04-01T00:46:55;21.20;85.00
5964;DHT22;3008;53.562;9.908;2023-04-01T00:49:27;21.20;84.90
5964;DHT22;3008;53.562;9.908;2023-04-01T00:51:57;21.20;85.10
5964;DHT22;3008;53.562;9.908;2023-04-01T00:54:25;21.20;85.10
5964;DHT22;3008;53.562;9.908;2023-04-01T00:56:59;21.20;85.30
5964;DHT22;3008;53.562;9.908;2023-04-01T00:59:37;21.20;85.10
5964;DHT22;3008;53.562;9.908;2023-04-01T01:02:07;21.20;85.30
5964;DHT22;3008;53.562;9.908;2023-04-01T01:04:34;21.20;85.40
5964;DHT22;3008;53.562;9.908;2023-04-01T01:10:29;21.20;85.30
5964;DHT22;3008;53.562;9.908;2023-04-01T01:15:37;21.20;85.30
5964;DHT22;3008;53.562;9.908;2023-04-01T01:26:58;21.20;85.40
5964;DHT22;3008;53.562;9.908;2023-04-01T01:32:19;21.20;85.60
5964;DHT22;3008;53.562;9.908;2023-04-01T01:37:39;21.10;85.50
5964;DHT22;3008;53.562;9.908;2023-04-01T01:40:08;21.20;85.50
5964;DHT22;3008;53.562;9.908;2023-04-01T01:42:38;21.20;85.70
5964;DHT22;3008;53.562;9.908;2023-04-01T01:45:06;21.10;85.60
5964;DHT22;3008;53.562;9.908;2023-04-01T01:47:34;21.20;85.80
5964;DHT22;3008;53.562;9.908;2023-04-01T01:50:01;21.20;85.80
5964;DHT22;3008;53.562;9.908;2023-04-01T01:52:29;21.20;86.00
5964;DHT22;3008;53.562;9.908;2023-04-01T01:54:56;21.10;85.80
5964;DHT22;3008;53.562;9.908;2023-04-01T01:57:34;21.20;85.90
5964;DHT22;3008;53.562;9.908;2023-04-01T02:00:07;21.10;85.90
5964;DHT22;3008;53.562;9.908;2023-04-01T02:02:42;21.10;86.00
5964;DHT22;3008;53.562;9.908;2023-04-01T02:05:17;21.10;85.90
5964;DHT22;3008;53.562;9.908;2023-04-01T02:07:48;21.10;86.00
5964;DHT22;3008;53.562;9.908;2023-04-01T02:10:15;21.20;86.10
5964;DHT22;3008;53.562;9.908;2023-04-01T02:12:42;21.20;86.00
5964;DHT22;3008;53.562;9.908;2023-04-01T02:15:12;21.10;86.00
5964;DHT22;3008;53.562;9.908;2023-04-01T02:17:43;21.10;86.00
5964;DHT22;3008;53.562;9.908;2023-04-01T02:20:16;21.10;85.90
5964;DHT22;3008;53.562;9.908;2023-04-01T02:22:51;21.10;85.90
5964;DHT22;3008;53.562;9.908;2023-04-01T02:25:27;21.10;85.90
5964;DHT22;3008;53.562;9.908;2023-04-01T02:27:55;21.20;86.10
5964;DHT22;3008;53.562;9.908;2023-04-01T02:30:23;21.10;85.90
5964;DHT22;3008;53.562;9.908;2023-04-01T02:32:51;21.10;85.90
5964;DHT22;3008;53.562;9.908;2023-04-01T02:35:17;21.10;85.90
5964;DHT22;3008;53.562;9.908;2023-04-01T02:37:44;21.10;85.90
5964;DHT22;3008;53.562;9.908;2023-04-01T02:40:13;21.10;85.90
5964;DHT22;3008;53.562;9.908;2023-04-01T02:42:39;21.10;86.00
5964;DHT22;3008;53.562;9.908;2023-04-01T02:45:06;21.10;86.00
5964;DHT22;3008;53.562;9.908;2023-04-01T02:47:31;21.10;86.10
5964;DHT22;3008;53.562;9.908;2023-04-01T02:49:57;21.20;86.20
5964;DHT22;3008;53.562;9.908;2023-04-01T02:52:28;21.10;86.10
5964;DHT22;3008;53.562;9.908;2023-04-01T02:54:55;21.10;86.10
5964;DHT22;3008;53.562;9.908;2023-04-01T02:57:21;19.50;84.50
5964;DHT22;3008;53.562;9.908;2023-04-01T02:59:47;21.10;86.10
5964;DHT22;3008;53.562;9.908;2023-04-01T03:02:12;21.10;86.10
5964;DHT22;3008;53.562;9.908;2023-04-01T03:04:38;21.10;86.20
5964;DHT22;3008;53.562;9.908;2023-04-01T03:07:04;21.10;86.20
5964;DHT22;3008;53.562;9.908;2023-04-01T03:09:29;21.10;87.10
5964;DHT22;3008;53.562;9.908;2023-04-01T03:11:55;21.10;86.20
5964;DHT22;3008;53.562;9.908;2023-04-01T03:14:21;21.10;86.20
5964;DHT22;3008;53.562;9.908;2023-04-01T03:16:47;21.10;86.10
5964;DHT22;3008;53.562;9.908;2023-04-01T03:19:12;21.10;86.20
5964;DHT22;3008;53.562;9.908;2023-04-01T03:21:38;21.10;86.20
5964;DHT22;3008;53.562;9.908;2023-04-01T03:24:04;21.10;86.20
5964;DHT22;3008;53.562;9.908;2023-04-01T03:26:30;21.10;86.30
5964;DHT22;3008;53.562;9.908;2023-04-01T03:28:56;21.10;86.30
5964;DHT22;3008;53.562;9.908;2023-04-01T03:31:21;21.10;86.30
5964;DHT22;3008;53.562;9.908;2023-04-01T03:33:47;21.10;86.30
5964;DHT22;3008;53.562;9.908;2023-04-01T03:36:13;21.10;86.40
5964;DHT22;3008;53.562;9.908;2023-04-01T03:38:43;21.10;86.20
5964;DHT22;3008;53.562;9.908;2023-04-01T03:41:13;21.10;86.30
5964;DHT22;3008;53.562;9.908;2023-04-01T03:43:39;21.10;86.30
5964;DHT22;3008;53.562;9.908;2023-04-01T03:46:05;21.10;86.40
5964;DHT22;3008;53.562;9.908;2023-04-01T03:48:30;21.10;86.40
5964;DHT22;3008;53.562;9.908;2023-04-01T03:50:56;21.10;86.30
5964;DHT22;3008;53.562;9.908;2023-04-01T03:53:22;21.10;86.30
5964;DHT22;3008;53.562;9.908;2023-04-01T03:55:48;21.10;86.30
5964;DHT22;3008;53.562;9.908;2023-04-01T03:58:13;21.10;86.40
5964;DHT22;3008;53.562;9.908;2023-04-01T04:00:39;21.10;86.30
5964;DHT22;3008;53.562;9.908;2023-04-01T04:03:06;21.10;86.40
5964;DHT22;3008;53.562;9.908;2023-04-01T04:05:32;21.10;86.30
5964;DHT22;3008;53.562;9.908;2023-04-01T04:07:57;21.10;86.30
5964;DHT22;3008;53.562;9.908;2023-04-01T04:10:23;21.10;86.20
5964;DHT22;3008;53.562;9.908;2023-04-01T04:12:50;21.10;86.20
5964;DHT22;3008;53.562;9.908;2023-04-01T04:15:16;21.10;86.30
5964;DHT22;3008;53.562;9.908;2023-04-01T04:17:42;21.10;86.30
5964;DHT22;3008;53.562;9.908;2023-04-01T04:20:08;21.10;86.30
5964;DHT22;3008;53.562;9.908;2023-04-01T04:22:34;21.10;86.20
5964;DHT22;3008;53.562;9.908;2023-04-01T04:24:59;21.10;86.10
5964;DHT22;3008;53.562;9.908;2023-04-01T04:27:25;21.10;86.10
5964;DHT22;3008;53.562;9.908;2023-04-01T04:29:50;21.10;86.00
5964;DHT22;3008;53.562;9.908;2023-04-01T04:32:16;21.10;86.00
5964;DHT22;3008;53.562;9.908;2023-04-01T04:34:42;21.10;85.90
5964;DHT22;3008;53.562;9.908;2023-04-01T04:37:07;21.10;85.80
5964;DHT22;3008;53.562;9.908;2023-04-01T04:39:33;21.10;85.80
5964;DHT22;3008;53.562;9.908;2023-04-01T04:41:58;21.10;85.90
5964;DHT22;3008;53.562;9.908;2023-04-01T04:44:24;21.10;85.90
5964;DHT22;3008;53.562;9.908;2023-04-01T04:46:50;21.10;85.90
5964;DHT22;3008;53.562;9.908;2023-04-01T04:49:16;21.10;85.90
5964;DHT22;3008;53.562;9.908;2023-04-01T04:51:41;21.10;85.90
5964;DHT22;3008;53.562;9.908;2023-04-01T04:54:07;21.10;85.90
5964;DHT22;3008;53.562;9.908;2023-04-01T04:56:33;21.10;85.80
5964;DHT22;3008;53.562;9.908;2023-04-01T04:58:58;21.10;85.90
5964;DHT22;3008;53.562;9.908;2023-04-01T05:01:25;21.10;86.00
5964;DHT22;3008;53.562;9.908;2023-04-01T05:03:50;21.10;85.90
5964;DHT22;3008;53.562;9.908;2023-04-01T05:06:18;21.10;85.80
5964;DHT22;3008;53.562;9.908;2023-04-01T05:08:44;21.10;85.80
5964;DHT22;3008;53.562;9.908;2023-04-01T05:11:13;21.10;85.90
5964;DHT22;3008;53.562;9.908;2023-04-01T05:13:39;21.10;85.80
5964;DHT22;3008;53.562;9.908;2023-04-01T05:16:09;21.20;85.90
5964;DHT22;3008;53.562;9.908;2023-04-01T05:18:35;21.20;85.90
5964;DHT22;3008;53.562;9.908;2023-04-01T05:21:01;21.20;85.90
5964;DHT22;3008;53.562;9.908;2023-04-01T05:23:26;21.20;85.90
5964;DHT22;3008;53.562;9.908;2023-04-01T05:25:52;21.20;85.80
5964;DHT22;3008;53.562;9.908;2023-04-01T05:28:19;21.20;86.00
5964;DHT22;3008;53.562;9.908;2023-04-01T05:30:45;21.10;85.80
5964;DHT22;3008;53.562;9.908;2023-04-01T05:33:11;21.20;85.90
5964;DHT22;3008;53.562;9.908;2023-04-01T05:35:38;21.20;85.80
5964;DHT22;3008;53.562;9.908;2023-04-01T05:38:04;21.10;85.50
5964;DHT22;3008;53.562;9.908;2023-04-01T05:40:30;21.20;85.40
5964;DHT22;3008;53.562;9.908;2023-04-01T05:42:56;21.20;85.30
5964;DHT22;3008;53.562;9.908;2023-04-01T05:45:22;21.20;85.40
5964;DHT22;3008;53.562;9.908;2023-04-01T05:47:47;21.20;85.40
5964;DHT22;3008;53.562;9.908;2023-04-01T05:50:13;21.20;85.30
5964;DHT22;3008;53.562;9.908;2023-04-01T05:52:38;21.20;85.40
5964;DHT22;3008;53.562;9.908;2023-04-01T05:55:04;21.20;85.30
5964;DHT22;3008;53.562;9.908;2023-04-01T05:57:30;21.20;85.30
5964;DHT22;3008;53.562;9.908;2023-04-01T05:59:56;21.20;85.20
5964;DHT22;3008;53.562;9.908;2023-04-01T06:02:22;21.20;84.80
5964;DHT22;3008;53.562;9.908;2023-04-01T06:04:48;20.90;79.00
5964;DHT22;3008;53.562;9.908;2023-04-01T06:07:16;20.80;78.50
5964;DHT22;3008;53.562;9.908;2023-04-01T06:09:42;20.60;77.20
5964;DHT22;3008;53.562;9.908;2023-04-01T06:14:43;20.50;80.60
5964;DHT22;3008;53.562;9.908;2023-04-01T06:23:01;20.70;81.30
5964;DHT22;3008;53.562;9.908;2023-04-01T06:37:11;20.90;82.30
5964;DHT22;3008;53.562;9.908;2023-04-01T06:40:44;20.90;82.40
5964;DHT22;3008;53.562;9.908;2023-04-01T06:45:44;20.90;82.60
5964;DHT22;3008;53.562;9.908;2023-04-01T06:53:41;21.00;83.10
5964;DHT22;3008;53.562;9.908;2023-04-01T06:56:12;21.00;83.10
5964;DHT22;3008;53.562;9.908;2023-04-01T06:58:52;21.00;83.10
5964;DHT22;3008;53.562;9.908;2023-04-01T07:01:51;21.00;83.10
5964;DHT22;3008;53.562;9.908;2023-04-01T07:04:23;21.00;83.20
5964;DHT22;3008;53.562;9.908;2023-04-01T07:07:01;21.00;83.20
5964;DHT22;3008;53.562;9.908;2023-04-01T07:09:39;21.00;83.30
5964;DHT22;3008;53.562;9.908;2023-04-01T07:12:15;21.10;83.40
5964;DHT22;3008;53.562;9.908;2023-04-01T07:14:46;21.10;83.50
5964;DHT22;3008;53.562;9.908;2023-04-01T07:17:27;21.10;83.60
5964;DHT22;3008;53.562;9.908;2023-04-01T07:22:36;21.10;83.60
5964;DHT22;3008;53.562;9.908;2023-04-01T07:25:29;21.00;83.50
5964;DHT22;3008;53.562;9.908;2023-04-01T07:28:04;21.10;83.60
5964;DHT22;3008;53.562;9.908;2023-04-01T07:33:22;21.20;86.80
5964;DHT22;3008;53.562;9.908;2023-04-01T07:36:09;21.20;84.00
5964;DHT22;3008;53.562;9.908;2023-04-01T07:38:52;21.30;84.80
5964;DHT22;3008;53.562;9.908;2023-04-01T07:41:32;21.30;84.60
5964;DHT22;3008;53.562;9.908;2023-04-01T07:49:49;21.30;84.10
5964;DHT22;3008;53.562;9.908;2023-04-01T07:55:18;21.30;83.60
5964;DHT22;3008;53.562;9.908;2023-04-01T08:06:41;21.30;83.50
5964;DHT22;3008;53.562;9.908;2023-04-01T08:09:40;21.30;83.40
5964;DHT22;3008;53.562;9.908;2023-04-01T08:14:53;21.30;83.40
5964;DHT22;3008;53.562;9.908;2023-04-01T08:20:34;21.30;83.50
5964;DHT22;3008;53.562;9.908;2023-04-01T08:28:56;21.30;83.60
5964;DHT22;3008;53.562;9.908;2023-04-01T08:34:21;21.30;83.60
5964;DHT22;3008;53.562;9.908;2023-04-01T08:42:44;21.30;83.90
5964;DHT22;3008;53.562;9.908;2023-04-01T08:50:52;21.30;84.20
5964;DHT22;3008;53.562;9.908;2023-04-01T08:56:20;21.30;84.40
5964;DHT22;3008;53.562;9.908;2023-04-01T08:59:22;21.30;84.50
5964;DHT22;3008;53.562;9.908;2023-04-01T09:10:20;21.30;84.70
5964;DHT22;3008;53.562;9.908;2023-04-01T09:15:56;21.40;85.00
5964;DHT22;3008;53.562;9.908;2023-04-01T09:21:29;21.30;85.80
5964;DHT22;3008;53.562;9.908;2023-04-01T09:34:54;21.40;85.00
5964;DHT22;3008;53.562;9.908;2023-04-01T09:40:16;21.40;84.70
5964;DHT22;3008;53.562;9.908;2023-04-01T09:43:06;21.40;84.50
5964;DHT22;3008;53.562;9.908;2023-04-01T09:51:17;21.40;84.00
5964;DHT22;3008;53.562;9.908;2023-04-01T09:53:48;21.40;84.00
5964;DHT22;3008;53.562;9.908;2023-04-01T10:04:58;21.40;83.20
5964;DHT22;3008;53.562;9.908;2023-04-01T10:07:54;21.40;83.20
5964;DHT22;3008;53.562;9.908;2023-04-01T10:21:25;21.40;82.80
5964;DHT22;3008;53.562;9.908;2023-04-01T10:26:55;21.40;82.90
5964;DHT22;3008;53.562;9.908;2023-04-01T10:39:38;21.40;83.00
5964;DHT22;3008;53.562;9.908;2023-04-01T10:47:43;21.40;83.00
5964;DHT22;3008;53.562;9.908;2023-04-01T11:24:30;21.40;83.20
5964;DHT22;3008;53.562;9.908;2023-04-01T11:26:52;21.40;83.10
5964;DHT22;3008;53.562;9.908;2023-04-01T11:32:43;21.40;83.20
5964;DHT22;3008;53.562;9.908;2023-04-01T11:35:38;21.40;83.20
5964;DHT22;3008;53.562;9.908;2023-04-01T12:05:50;21.40;83.20
5964;DHT22;3008;53.562;9.908;2023-04-01T12:08:53;21.40;83.10
5964;DHT22;3008;53.562;9.908;2023-04-01T12:25:21;21.40;83.30
5964;DHT22;3008;53.562;9.908;2023-04-01T12:28:00;21.40;83.40
5964;DHT22;3008;53.562;9.908;2023-04-01T12:30:46;21.50;83.50
5964;DHT22;3008;53.562;9.908;2023-04-01T12:41:51;21.50;83.50
5964;DHT22;3008;53.562;9.908;2023-04-01T12:52:14;21.40;83.60
5964;DHT22;3008;53.562;9.908;2023-04-01T12:57:57;21.40;83.50
5964;DHT22;3008;53.562;9.908;2023-04-01T13:09:13;21.50;83.50
5964;DHT22;3008;53.562;9.908;2023-04-01T13:20:26;21.50;83.30
5964;DHT22;3008;53.562;9.908;2023-04-01T13:23:24;21.50;83.30
5964;DHT22;3008;53.562;9.908;2023-04-01T13:28:57;21.50;83.10
5964;DHT22;3008;53.562;9.908;2023-04-01T13:40:39;21.50;83.00
5964;DHT22;3008;53.562;9.908;2023-04-01T13:43:20;21.50;83.10
5964;DHT22;3008;53.562;9.908;2023-04-01T13:46:08;21.50;83.90
5964;DHT22;3008;53.562;9.908;2023-04-01T14:00:27;21.40;82.90
5964;DHT22;3008;53.562;9.908;2023-04-01T14:14:41;21.40;82.70
5964;DHT22;3008;53.562;9.908;2023-04-01T14:17:37;21.40;82.60
5964;DHT22;3008;53.562;9.908;2023-04-01T14:20:37;21.40;82.50
5964;DHT22;3008;53.562;9.908;2023-04-01T14:23:28;21.40;82.50
5964;DHT22;3008;53.562;9.908;2023-04-01T14:32:16;21.30;82.30
5964;DHT22;3008;53.562;9.908;2023-04-01T14:51:37;21.30;82.10
5964;DHT22;3008;53.562;9.908;2023-04-01T14:56:50;21.30;82.20
5964;DHT22;3008;53.562;9.908;2023-04-01T15:01:53;21.20;82.90
5964;DHT22;3008;53.562;9.908;2023-04-01T15:21:31;20.90;78.20
5964;DHT22;3008;53.562;9.908;2023-04-01T15:24:10;20.90;78.60
5964;DHT22;3008;53.562;9.908;2023-04-01T15:35:18;21.00;80.60
5964;DHT22;3008;53.562;9.908;2023-04-01T15:40:32;21.10;83.20
5964;DHT22;3008;53.562;9.908;2023-04-01T15:43:21;21.20;83.40
5964;DHT22;3008;53.562;9.908;2023-04-01T15:51:25;21.20;83.70
5964;DHT22;3008;53.562;9.908;2023-04-01T15:56:51;21.20;83.60
5964;DHT22;3008;53.562;9.908;2023-04-01T15:59:54;21.20;83.20
5964;DHT22;3008;53.562;9.908;2023-04-01T16:08:01;21.20;82.70
5964;DHT22;3008;53.562;9.908;2023-04-01T16:13:24;21.20;82.50
5964;DHT22;3008;53.562;9.908;2023-04-01T16:16:12;21.20;82.40
5964;DHT22;3008;53.562;9.908;2023-04-01T16:21:57;21.20;82.30
5964;DHT22;3008;53.562;9.908;2023-04-01T16:24:51;21.20;82.20
5964;DHT22;3008;53.562;9.908;2023-04-01T16:27:27;21.20;82.10
5964;DHT22;3008;53.562;9.908;2023-04-01T16:30:32;21.20;82.00
5964;DHT22;3008;53.562;9.908;2023-04-01T16:35:59;21.20;82.00
5964;DHT22;3008;53.562;9.908;2023-04-01T16:41:10;21.20;81.80
5964;DHT22;3008;53.562;9.908;2023-04-01T16:43:53;21.10;81.70
5964;DHT22;3008;53.562;9.908;2023-04-01T16:51:48;21.10;81.60
5964;DHT22;3008;53.562;9.908;2023-04-01T16:57:18;21.10;81.50
5964;DHT22;3008;53.562;9.908;2023-04-01T16:59:52;21.10;81.50
5964;DHT22;3008;53.562;9.908;2023-04-01T17:02:25;21.10;81.40
5964;DHT22;3008;53.562;9.908;2023-04-01T17:05:03;21.10;81.40
5964;DHT22;3008;53.562;9.908;2023-04-01T17:11:15;21.10;81.30
5964;DHT22;3008;53.562;9.908;2023-04-01T17:16:41;21.10;81.40
5964;DHT22;3008;53.562;9.908;2023-04-01T17:24:42;21.10;81.20
5964;DHT22;3008;53.562;9.908;2023-04-01T17:27:26;21.10;81.20
5964;DHT22;3008;53.562;9.908;2023-04-01T17:39:05;21.10;81.10
5964;DHT22;3008;53.562;9.908;2023-04-01T17:42:09;21.10;81.00
5964;DHT22;3008;53.562;9.908;2023-04-01T17:50:10;21.10;81.80
5964;DHT22;3008;53.562;9.908;2023-04-01T17:52:44;21.10;80.90
5964;DHT22;3008;53.562;9.908;2023-04-01T18:00:50;21.10;80.80
5964;DHT22;3008;53.562;9.908;2023-04-01T18:25:54;21.10;82.60
5964;DHT22;3008;53.562;9.908;2023-04-01T18:38:52;21.10;83.10
5964;DHT22;3008;53.562;9.908;2023-04-01T18:41:36;21.10;83.00
5964;DHT22;3008;53.562;9.908;2023-04-01T18:47:30;21.10;82.70
5964;DHT22;3008;53.562;9.908;2023-04-01T18:56:10;21.10;82.40
5964;DHT22;3008;53.562;9.908;2023-04-01T18:58:50;21.10;82.30
5964;DHT22;3008;53.562;9.908;2023-04-01T19:04:33;21.10;82.20
5964;DHT22;3008;53.562;9.908;2023-04-01T19:09:51;21.10;82.10
5964;DHT22;3008;53.562;9.908;2023-04-01T19:16:32;21.10;81.90
5964;DHT22;3008;53.562;9.908;2023-04-01T19:19:10;21.10;81.80
5964;DHT22;3008;53.562;9.908;2023-04-01T19:24:36;21.00;81.70
5964;DHT22;3008;53.562;9.908;2023-04-01T19:27:21;21.00;81.60
5964;DHT22;3008;53.562;9.908;2023-04-01T19:46:37;21.00;81.20
5964;DHT22;3008;53.562;9.908;2023-04-01T20:08:15;21.00;81.00
5964;DHT22;3008;53.562;9.908;2023-04-01T20:16:06;21.00;80.90
5964;DHT22;3008;53.562;9.908;2023-04-01T20:21:40;20.90;80.70
5964;DHT22;3008;53.562;9.908;2023-04-01T20:26:42;20.90;80.70
5964;DHT22;3008;53.562;9.908;2023-04-01T20:35:13;20.90;80.70
5964;DHT22;3008;53.562;9.908;2023-04-01T20:51:26;20.90;80.50
5964;DHT22;3008;53.562;9.908;2023-04-01T20:54:02;20.90;80.50
5964;DHT22;3008;53.562;9.908;2023-04-01T20:56:40;20.90;80.50
5964;DHT22;3008;53.562;9.908;2023-04-01T21:02:19;20.90;80.40
5964;DHT22;3008;53.562;9.908;2023-04-01T21:07:49;20.80;80.30
5964;DHT22;3008;53.562;9.908;2023-04-01T21:18:24;20.80;80.20
5964;DHT22;3008;53.562;9.908;2023-04-01T21:21:23;20.80;80.20
5964;DHT22;3008;53.562;9.908;2023-04-01T21:27:42;20.80;80.10
5964;DHT22;3008;53.562;9.908;2023-04-01T21:36:01;20.80;79.50
5964;DHT22;3008;53.562;9.908;2023-04-01T21:39:05;20.70;79.20
5964;DHT22;3008;53.562;9.908;2023-04-01T21:47:30;20.70;79.50
5964;DHT22;3008;53.562;9.908;2023-04-01T22:11:02;20.70;79.50
5964;DHT22;3008;53.562;9.908;2023-04-01T22:13:53;20.70;79.40
5964;DHT22;3008;53.562;9.908;2023-04-01T22:29:59;20.70;79.30
5964;DHT22;3008;53.562;9.908;2023-04-01T22:35:50;20.70;79.40
5964;DHT22;3008;53.562;9.908;2023-04-01T22:38:21;20.70;79.30
5964;DHT22;3008;53.562;9.908;2023-04-01T22:40:57;20.70;79.40
5964;DHT22;3008;53.562;9.908;2023-04-01T22:43:37;20.60;79.20
5964;DHT22;3008;53.562;9.908;2023-04-01T22:46:20;20.60;79.30
5964;DHT22;3008;53.562;9.908;2023-04-01T22:49:02;20.60;79.20
5964;DHT22;3008;53.562;9.908;2023-04-01T22:51:56;20.60;79.20
5964;DHT22;3008;53.562;9.908;2023-04-01T22:57:28;20.60;79.20
5964;DHT22;3008;53.562;9.908;2023-04-01T23:00:11;20.60;79.10
5964;DHT22;3008;53.562;9.908;2023-04-01T23:03:31;20.60;79.10
5964;DHT22;3008;53.562;9.908;2023-04-01T23:05:32;20.30;78.80
5964;DHT22;3008;53.562;9.908;2023-04-01T23:10:53;20.60;79.10
5964;DHT22;3008;53.562;9.908;2023-04-01T23:13:30;20.60;79.10
5964;DHT22;3008;53.562;9.908;2023-04-01T23:15:58;21.60;80.10
5964;DHT22;3008;53.562;9.908;2023-04-01T23:18:33;20.60;79.10
5964;DHT22;3008;53.562;9.908;2023-04-01T23:21:49;20.60;79.00
5964;DHT22;3008;53.562;9.908;2023-04-01T23:24:15;20.60;79.00
5964;DHT22;3008;53.562;9.908;2023-04-01T23:27:03;20.60;79.00
5964;DHT22;3008;53.562;9.908;2023-04-01T23:29:35;20.50;78.90
5964;DHT22;3008;53.562;9.908;2023-04-01T23:32:03;20.60;79.10
5964;DHT22;3008;53.562;9.908;2023-04-01T23:34:31;20.50;78.90
5964;DHT22;3008;53.562;9.908;2023-04-01T23:37:12;20.50;78.90
5964;DHT22;3008;53.562;9.908;2023-04-01T23:39:46;20.50;78.90
5964;DHT22;3008;53.562;9.908;2023-04-01T23:42:15;20.50;78.90
5964;DHT22;3008;53.562;9.908;2023-04-01T23:44:42;20.50;78.80
5964;DHT22;3008;53.562;9.908;2023-04-01T23:47:14;20.50;78.80
5964;DHT22;3008;53.562;9.908;2023-04-01T23:49:53;20.50;78.80
5964;DHT22;3008;53.562;9.908;2023-04-01T23:52:26;20.50;78.80
5964;DHT22;3008;53.562;9.908;2023-04-01T23:55:08;20.50;78.80
5964;DHT22;3008;53.562;9.908;2023-04-01T23:57:35;20.50;78.80
